Nearby METAR Reports

 

LBSF - Sofia (observato, Bulgaria
Distance from station: ЮИ 5km
Актуализирано: 29/10/2020 22:30
Mist, Частична облачност
Mist, Частична облачност
 Вятър от И
Вятър: И 2 km/h
Температура: 8°C
Точка на оросяване: 8°C
Влажност: 100%
Барометър: 1018 hPa
Обобщение: Mist
Clouds: Частична облачност
Visibility: 5 km
Cloud details: Few Clouds 1006 m
Частична облачност 1250 m
2020/10/29 20:30 LBSF 292030Z 10001KT 5000 BR FEW033 SCT041 08/08 Q1018 TEMPO 2000 BR